< < Back
Terminal Aerodrome Forecast


Current Version              Previous Versions:   1  2  3  4  5  6  7  8  9  

Terminal Aerodrome Forecast

485
FTUS42 KGSP 251502 AAA
TAFCLT
TAF AMD
KCLT 251502Z 2515/2612 20007KT P6SM FEW060 SCT250
     FM260600 19003KT P6SM FEW130=

Latest METAR

136
SAUS70 KWBC 251700 RRH
MTRCLT
METAR KCLT 251652Z 24008KT 210V270 10SM FEW065 34/21 A3005 RMK AO2
SLP165 T03440211


USA.gov is the U.S. government's official web portal to all federal, state and local government web resources and services.